Avondale, Colorado
Current Conditions -  °F | °C
As of 5:53 AM on Tuesday 21 Oct 2014 (Local Time) from KPUB Reporting Station
Clear Clear  
Wind Chill: 38°   Ceiling: Unl
Heat Index: 41°   Visibility: 10mi
Dew Point: 38°   Wind: 5mph
Humidity: 89%   Direction: 260°W
Pressure: 30.06"   Gusts: NA
Location:  38.24°N, 104.35°W
Report Text: KPUB 211153Z 26004KT 10SM CLR 05/03 A3006 RMK AO2 SLP148 T00500033 10117 20050 57002
Loading
Personal Weather Stations






























Interactive Weather Map New forecast layout! Learn more

10-Day Weather Forecast

Advertisements
Track Severe Weather on mobile